createdAt,value
2019-02-08T00:01:31.233Z,100822.92
2019-02-08T00:04:02.832Z,100827.47
2019-02-08T00:06:35.464Z,100826.05
2019-02-08T00:09:08.383Z,100838.59
2019-02-08T00:11:40.392Z,100827.98
2019-02-08T00:14:12.243Z,100834.64
2019-02-08T00:16:44.166Z,100830.73
2019-02-08T00:19:15.936Z,100831.31
2019-02-08T00:21:47.689Z,100828.10
2019-02-08T00:24:19.515Z,100833.31
2019-02-08T00:26:51.515Z,100834.84
2019-02-08T00:29:23.918Z,100830.05
2019-02-08T00:31:55.581Z,100825.16
2019-02-08T00:34:27.179Z,100829.86
2019-02-08T00:36:58.904Z,100831.55
2019-02-08T00:39:30.899Z,100831.91
2019-02-08T00:42:02.484Z,100835.42
2019-02-08T00:44:34.072Z,100844.44
2019-02-08T00:47:06.098Z,100847.49
2019-02-08T00:49:37.693Z,100854.51
2019-02-08T00:52:09.294Z,100853.72
2019-02-08T00:54:41.022Z,100855.37
2019-02-08T00:57:12.616Z,100854.89
2019-02-08T00:59:44.790Z,100857.95
2019-02-08T01:02:16.419Z,100860.18
2019-02-08T01:04:48.097Z,100855.09
2019-02-08T01:07:19.831Z,100856.42
2019-02-08T01:09:51.501Z,100855.48
2019-02-08T01:12:24.159Z,100857.64
2019-02-08T01:14:56.224Z,100866.06
2019-02-08T01:17:27.879Z,100867.83
2019-02-08T01:19:59.759Z,100862.46
2019-02-08T01:22:32.417Z,100870.97
2019-02-08T01:25:05.568Z,100858.89
2019-02-08T01:27:37.394Z,100860.31
2019-02-08T01:30:21.811Z,100866.19
2019-02-08T01:32:53.418Z,100867.83
2019-02-08T01:35:25.234Z,100881.07
2019-02-08T01:37:58.047Z,100873.95
2019-02-08T01:40:33.634Z,100881.03
2019-02-08T01:43:06.545Z,100869.16
2019-02-08T01:45:38.438Z,100875.83
2019-02-08T01:48:10.101Z,100870.50
2019-02-08T01:50:42.245Z,100879.82
2019-02-08T01:53:13.977Z,100871.28
2019-02-08T01:55:45.660Z,100874.88
2019-02-08T01:58:17.403Z,100867.08
2019-02-08T02:00:49.071Z,100867.98
2019-02-08T02:03:20.784Z,100873.81
2019-02-08T02:05:52.949Z,100873.78
2019-02-08T02:08:24.533Z,100869.20
2019-02-08T02:10:56.110Z,100879.35
2019-02-08T02:13:27.780Z,100875.31
2019-02-08T02:15:59.468Z,100879.27
2019-02-08T02:18:31.182Z,100880.37
2019-02-08T02:21:03.332Z,100890.16
2019-02-08T02:23:34.920Z,100889.30
2019-02-08T02:26:06.507Z,100890.20
2019-02-08T02:28:38.178Z,100890.16
2019-02-08T02:31:10.884Z,100885.27
2019-02-08T02:33:42.501Z,100893.97
2019-02-08T02:36:14.082Z,100897.14
2019-02-08T02:38:45.753Z,100890.01
2019-02-08T02:41:17.380Z,100893.61
2019-02-08T02:43:48.950Z,100894.55
2019-02-08T02:46:20.563Z,100898.83
2019-02-08T02:48:52.237Z,100897.38
2019-02-08T02:51:23.894Z,100899.73
2019-02-08T02:53:55.485Z,100898.75
2019-02-08T02:56:27.091Z,100904.16
2019-02-08T02:58:58.735Z,100911.22
2019-02-08T03:01:30.497Z,100908.98
2019-02-08T03:04:02.095Z,100910.27
2019-02-08T03:06:33.692Z,100909.80
2019-02-08T03:09:07.460Z,100914.70
2019-02-08T03:11:40.106Z,100920.38
2019-02-08T03:14:11.768Z,100923.02
2019-02-08T03:16:43.413Z,100921.41
2019-02-08T03:19:15.026Z,100926.19
2019-02-08T03:21:46.931Z,100925.84
2019-02-08T03:24:18.582Z,100935.28
2019-02-08T03:26:50.269Z,100934.73
2019-02-08T03:29:21.945Z,100930.02
2019-02-08T03:31:53.610Z,100924.11
2019-02-08T03:34:25.209Z,100924.94
2019-02-08T03:36:56.805Z,100927.95
2019-02-08T03:39:28.382Z,100920.90
2019-02-08T03:42:00.050Z,100928.11
2019-02-08T03:44:31.728Z,100933.44
2019-02-08T03:47:03.401Z,100936.03
2019-02-08T03:49:35.111Z,100944.93
2019-02-08T03:52:06.746Z,100948.13
2019-02-08T03:54:38.311Z,100944.53
2019-02-08T03:57:09.899Z,100947.62
2019-02-08T03:59:41.502Z,100945.36
2019-02-08T04:02:13.347Z,100947.55
2019-02-08T04:04:45.007Z,100942.70
2019-02-08T04:07:16.603Z,100954.26
2019-02-08T04:09:48.341Z,100954.80
2019-02-08T04:12:19.935Z,100945.47
2019-02-08T04:14:51.549Z,100948.56
2019-02-08T04:17:23.156Z,100943.20
2019-02-08T04:19:54.837Z,100954.77
2019-02-08T04:22:26.493Z,100949.47
2019-02-08T04:24:58.207Z,100949.60
2019-02-08T04:27:42.299Z,100951.37
2019-02-08T04:30:27.161Z,100950.53
2019-02-08T04:33:00.333Z,100954.16
2019-02-08T04:35:31.942Z,100958.13
2019-02-08T04:38:03.621Z,100955.52
2019-02-08T04:40:35.338Z,100960.47
2019-02-08T04:43:06.931Z,100958.16
2019-02-08T04:45:38.854Z,100968.38
2019-02-08T04:48:10.537Z,100973.70
2019-02-08T04:50:42.110Z,100971.04
2019-02-08T04:53:13.783Z,100973.27
2019-02-08T04:55:45.477Z,100977.70
2019-02-08T04:58:17.092Z,100980.88
2019-02-08T05:00:48.898Z,100984.84
2019-02-08T05:03:20.490Z,100979.03
2019-02-08T05:05:52.105Z,100987.56
2019-02-08T05:08:23.971Z,100991.12
2019-02-08T05:10:55.688Z,100992.45
2019-02-08T05:13:27.292Z,100998.65
2019-02-08T05:15:59.110Z,101003.97
2019-02-08T05:18:32.073Z,101004.85
2019-02-08T05:21:07.190Z,100995.04
2019-02-08T05:23:39.158Z,100998.14
2019-02-08T05:26:10.751Z,100995.95
2019-02-08T05:28:43.967Z,101003.59
2019-02-08T05:31:15.591Z,101006.64
2019-02-08T05:33:47.190Z,101015.96
2019-02-08T05:36:19.265Z,101019.04
2019-02-08T05:38:50.930Z,101023.45
2019-02-08T05:41:22.583Z,101028.83
2019-02-08T05:43:54.169Z,101027.05
2019-02-08T05:46:25.942Z,101023.41
2019-02-08T05:48:57.547Z,101021.22
2019-02-08T05:51:29.595Z,101027.11
2019-02-08T05:54:01.263Z,101026.65
2019-02-08T05:56:33.027Z,101030.23
2019-02-08T05:59:04.988Z,101032.41
2019-02-08T06:01:36.746Z,101031.98
2019-02-08T06:04:08.570Z,101032.05
2019-02-08T06:06:40.518Z,101034.64
2019-02-08T06:09:12.107Z,101033.75
2019-02-08T06:11:43.685Z,101036.43
2019-02-08T06:14:15.804Z,101034.65
2019-02-08T06:16:47.599Z,101036.78
2019-02-08T06:19:19.194Z,101036.77
2019-02-08T06:21:50.849Z,101042.58
2019-02-08T06:24:22.446Z,101039.47
2019-02-08T06:26:54.136Z,101047.42
2019-02-08T06:29:25.873Z,101052.34
2019-02-08T06:31:57.735Z,101059.94
2019-02-08T06:34:29.363Z,101054.61
2019-02-08T06:37:02.651Z,101054.22
2019-02-08T06:39:35.895Z,101060.41
2019-02-08T06:42:07.477Z,101066.66
2019-02-08T06:44:39.260Z,101063.98
2019-02-08T06:47:11.127Z,101070.59
2019-02-08T06:49:42.798Z,101069.34
2019-02-08T06:52:14.393Z,101068.78
2019-02-08T06:54:46.200Z,101076.71
2019-02-08T06:57:19.436Z,101082.92
2019-02-08T06:59:52.694Z,101078.88
2019-02-08T07:02:26.362Z,101088.62
2019-02-08T07:05:15.766Z,101096.12
2019-02-08T07:07:55.206Z,101093.89
2019-02-08T07:10:28.510Z,101105.50
2019-02-08T07:13:14.696Z,101098.92
2019-02-08T07:15:50.654Z,101104.14
2019-02-08T07:18:23.891Z,101107.14
2019-02-08T07:21:03.214Z,101110.23
2019-02-08T07:23:39.485Z,101115.09
2019-02-08T07:26:19.287Z,101112.87
2019-02-08T07:29:08.223Z,101111.97
2019-02-08T07:31:41.832Z,101112.41
2019-02-08T07:34:31.599Z,101111.42
2019-02-08T07:37:05.022Z,101117.13
2019-02-08T07:39:55.848Z,101120.70
2019-02-08T07:42:30.167Z,101119.30
2019-02-08T07:45:09.598Z,101115.56
2019-02-08T07:47:44.407Z,101121.73
2019-02-08T07:50:21.879Z,101124.91
2019-02-08T07:53:15.621Z,101121.27
2019-02-08T07:55:58.361Z,101115.78
2019-02-08T07:58:48.308Z,101115.81
2019-02-08T08:01:27.521Z,101115.70
2019-02-08T08:04:03.625Z,101124.64
2019-02-08T08:06:36.820Z,101125.35
2019-02-08T08:09:26.419Z,101125.55
2019-02-08T08:11:59.672Z,101131.20
2019-02-08T08:14:49.027Z,101129.13
2019-02-08T08:17:33.238Z,101120.48
2019-02-08T08:20:16.457Z,101125.13
2019-02-08T08:23:09.263Z,101120.64
2019-02-08T08:25:58.628Z,101132.23
2019-02-08T08:28:48.195Z,101126.52
2019-02-08T08:31:24.243Z,101119.78
2019-02-08T08:34:12.445Z,101125.17
2019-02-08T08:37:03.803Z,101124.69
2019-02-08T08:39:55.274Z,101130.32
2019-02-08T08:42:37.497Z,101121.73
2019-02-08T08:45:20.012Z,101129.42
2019-02-08T08:48:23.205Z,101130.17
2019-02-08T08:51:09.372Z,101125.57
2019-02-08T08:54:05.428Z,101127.98
2019-02-08T08:57:00.900Z,101127.61
2019-02-08T08:59:42.724Z,101122.97
2019-02-08T09:02:46.007Z,101121.09
2019-02-08T09:05:49.776Z,101138.13
2019-02-08T09:08:38.554Z,101132.37
2019-02-08T09:11:42.060Z,101135.48
2019-02-08T09:14:21.292Z,101133.48
2019-02-08T09:17:23.056Z,101135.52
2019-02-08T09:20:34.238Z,101127.83
2019-02-08T09:23:37.421Z,101126.22
2019-02-08T09:26:22.750Z,101132.57
2019-02-08T09:29:13.832Z,101129.16
2019-02-08T09:32:36.039Z,101126.42
2019-02-08T09:35:29.528Z,101131.51
2019-02-08T09:38:48.215Z,101122.74
2019-02-08T09:41:50.485Z,101128.45
2019-02-08T09:45:03.578Z,101129.91
2019-02-08T09:48:10.043Z,101138.23
2019-02-08T09:50:55.551Z,101142.99
2019-02-08T09:53:54.932Z,101142.08
2019-02-08T09:56:46.405Z,101132.78
2019-02-08T09:59:40.530Z,101129.57
2019-02-08T10:02:28.404Z,101132.99
2019-02-08T10:05:10.438Z,101132.19
2019-02-08T10:08:09.223Z,101140.83
2019-02-08T10:11:26.678Z,101133.84
2019-02-08T10:14:21.004Z,101141.36
2019-02-08T10:17:39.821Z,101131.03
2019-02-08T10:20:49.475Z,101137.23
2019-02-08T10:23:59.297Z,101137.95
2019-02-08T10:27:24.439Z,101145.31
2019-02-08T10:30:46.619Z,101135.91
2019-02-08T10:33:52.435Z,101126.65
2019-02-08T10:36:51.304Z,101128.53
2019-02-08T10:39:48.773Z,101137.41
2019-02-08T10:42:53.684Z,101136.42
2019-02-08T10:45:58.348Z,101127.98
2019-02-08T10:48:54.661Z,101134.17
2019-02-08T10:52:00.077Z,101127.41
2019-02-08T10:55:13.366Z,101114.38
2019-02-08T10:58:23.768Z,101119.61
2019-02-08T11:01:32.928Z,101121.16
2019-02-08T11:04:33.525Z,101107.55
2019-02-08T11:07:43.513Z,101106.70
2019-02-08T11:10:51.476Z,101107.10
2019-02-08T11:14:10.585Z,101105.86
2019-02-08T11:17:40.546Z,101108.31
2019-02-08T11:20:12.231Z,101108.02
2019-02-08T11:22:43.982Z,101105.41
2019-02-08T11:25:15.550Z,101105.45
2019-02-08T11:27:48.020Z,101102.66
2019-02-08T11:30:19.692Z,101099.95
2019-02-08T11:32:51.293Z,101093.67
2019-02-08T11:35:23.381Z,101098.86
2019-02-08T11:37:55.588Z,101088.76
2019-02-08T11:40:27.428Z,101086.16
2019-02-08T11:42:59.020Z,101086.16
2019-02-08T11:45:30.654Z,101085.30
2019-02-08T11:48:02.249Z,101088.56
2019-02-08T11:50:34.907Z,101090.91
2019-02-08T11:53:06.979Z,101086.91
2019-02-08T11:55:38.612Z,101092.41
2019-02-08T11:58:10.210Z,101085.02
2019-02-08T12:00:43.439Z,101084.09
2019-02-08T12:03:15.021Z,101082.25
2019-02-08T12:05:46.782Z,101074.04
2019-02-08T12:08:18.527Z,101073.50
2019-02-08T12:10:50.793Z,101070.50
2019-02-08T12:13:22.464Z,101062.70
2019-02-08T12:15:54.195Z,101067.42
2019-02-08T12:18:25.940Z,101061.00
2019-02-08T12:20:57.528Z,101058.86
2019-02-08T12:23:29.106Z,101048.34
2019-02-08T12:26:00.696Z,101040.90
2019-02-08T12:28:35.086Z,101038.03
2019-02-08T12:31:10.619Z,101041.21
2019-02-08T12:33:43.627Z,101030.45
2019-02-08T12:36:15.387Z,101023.34
2019-02-08T12:38:47.456Z,101031.91
2019-02-08T12:41:19.142Z,101032.23
2019-02-08T12:43:51.387Z,101025.31
2019-02-08T12:46:23.030Z,101031.06
2019-02-08T12:48:54.674Z,101029.77
2019-02-08T12:51:26.267Z,101025.41
2019-02-08T12:53:57.982Z,101032.11
2019-02-08T12:56:29.573Z,101028.12
2019-02-08T12:59:01.298Z,101026.47
2019-02-08T13:01:37.728Z,101024.26
2019-02-08T13:04:06.410Z,101020.70
2019-02-08T13:06:38.090Z,101015.53
2019-02-08T13:09:11.106Z,101007.36
2019-02-08T13:11:42.686Z,101020.05
2019-02-08T13:14:14.341Z,101014.80
2019-02-08T13:16:45.930Z,101014.27
2019-02-08T13:19:17.550Z,101014.42
2019-02-08T13:21:49.146Z,101006.40
2019-02-08T13:24:20.726Z,101001.41
2019-02-08T13:26:53.060Z,101003.92
2019-02-08T13:29:24.939Z,101003.39
2019-02-08T13:31:56.541Z,101006.44
2019-02-08T13:34:41.097Z,101006.66
2019-02-08T13:37:12.675Z,101014.55
2019-02-08T13:39:44.748Z,101003.23
2019-02-08T13:42:19.415Z,100999.92
2019-02-08T13:44:51.307Z,100995.66
2019-02-08T13:47:23.993Z,100988.73
2019-02-08T13:49:55.608Z,100994.43
2019-02-08T13:52:27.338Z,100992.58
2019-02-08T13:54:59.396Z,100990.63
2019-02-08T13:57:30.993Z,100992.25
2019-02-08T14:00:03.486Z,100990.82
2019-02-08T14:02:35.134Z,100983.24
2019-02-08T14:05:08.428Z,100975.42
2019-02-08T14:07:40.499Z,100987.48
2019-02-08T14:10:20.865Z,100982.85
2019-02-08T14:12:52.859Z,100979.57
2019-02-08T14:15:26.206Z,100978.50
2019-02-08T14:17:57.880Z,100975.52
2019-02-08T14:20:30.003Z,100970.65
2019-02-08T14:23:07.277Z,100982.31
2019-02-08T14:25:41.686Z,100988.22
2019-02-08T14:28:13.381Z,100982.55
2019-02-08T14:30:45.058Z,100980.97
2019-02-08T14:33:16.752Z,100981.59
2019-02-08T14:35:48.509Z,100978.42
2019-02-08T14:38:20.829Z,100974.75
2019-02-08T14:40:52.419Z,100965.47
2019-02-08T14:43:25.723Z,100970.55
2019-02-08T14:45:57.426Z,100965.15
2019-02-08T14:48:29.165Z,100964.80
2019-02-08T14:51:00.822Z,100966.50
2019-02-08T14:53:32.553Z,100966.14
2019-02-08T14:56:04.196Z,100960.03
2019-02-08T14:58:35.841Z,100966.14
2019-02-08T15:01:07.522Z,100961.97
2019-02-08T15:03:39.098Z,100964.06
2019-02-08T15:06:10.899Z,100963.52
2019-02-08T15:08:42.567Z,100966.35
2019-02-08T15:11:14.173Z,100973.60
2019-02-08T15:13:46.391Z,100971.72
2019-02-08T15:16:19.372Z,100972.58
2019-02-08T15:18:51.175Z,100979.77
2019-02-08T15:21:22.852Z,100971.95
2019-02-08T15:23:54.455Z,100969.87
2019-02-08T15:26:26.044Z,100963.47
2019-02-08T15:28:57.769Z,100955.53
2019-02-08T15:31:29.437Z,100962.05
2019-02-08T15:34:01.078Z,100953.78
2019-02-08T15:36:32.776Z,100961.09
2019-02-08T15:39:06.137Z,100964.02
2019-02-08T15:41:37.782Z,100963.04
2019-02-08T15:44:09.364Z,100967.06
2019-02-08T15:46:41.146Z,100976.34
2019-02-08T15:49:12.823Z,100975.56
2019-02-08T15:51:45.316Z,100973.20
2019-02-08T15:54:19.359Z,100966.05
2019-02-08T15:56:51.972Z,100973.26
2019-02-08T15:59:23.679Z,100967.61
2019-02-08T16:01:55.309Z,100969.37
2019-02-08T16:04:26.995Z,100963.26
2019-02-08T16:06:58.703Z,100958.53
2019-02-08T16:09:30.405Z,100964.08
2019-02-08T16:12:02.075Z,100963.80
2019-02-08T16:14:33.755Z,100953.44
2019-02-08T16:17:06.152Z,100964.80
2019-02-08T16:19:37.731Z,100967.98
2019-02-08T16:22:09.509Z,100963.41
2019-02-08T16:24:41.186Z,100965.64
2019-02-08T16:27:12.995Z,100965.95
2019-02-08T16:29:45.241Z,100967.88
2019-02-08T16:32:16.821Z,100966.52
2019-02-08T16:34:49.315Z,100961.91
2019-02-08T16:37:21.096Z,100958.99
2019-02-08T16:39:52.881Z,100966.52
2019-02-08T16:42:24.534Z,100973.58
2019-02-08T16:44:57.939Z,100970.44
2019-02-08T16:47:29.604Z,100973.55
2019-02-08T16:50:01.181Z,100968.38
2019-02-08T16:52:32.796Z,100972.91
2019-02-08T16:55:07.094Z,100971.36
2019-02-08T16:57:38.754Z,100959.50
2019-02-08T17:00:29.842Z,100958.22
2019-02-08T17:03:05.145Z,100959.14
2019-02-08T17:05:36.942Z,100949.97
2019-02-08T17:08:08.553Z,100951.09
2019-02-08T17:10:40.605Z,100952.84
2019-02-08T17:13:13.645Z,100953.53
2019-02-08T17:15:45.283Z,100957.03
2019-02-08T17:18:17.321Z,100951.19
2019-02-08T17:20:50.607Z,100952.97
2019-02-08T17:23:22.858Z,100952.71
2019-02-08T17:25:54.513Z,100948.16
2019-02-08T17:28:26.206Z,100943.58
2019-02-08T17:30:57.882Z,100946.27
2019-02-08T17:33:29.502Z,100949.77
2019-02-08T17:36:01.066Z,100944.15
2019-02-08T17:38:33.830Z,100949.50
2019-02-08T17:41:05.514Z,100943.83
2019-02-08T17:43:37.456Z,100949.17
2019-02-08T17:46:13.532Z,100953.34
2019-02-08T17:49:03.483Z,100947.59
2019-02-08T17:51:38.452Z,100947.52
2019-02-08T17:54:13.317Z,100953.08
2019-02-08T17:56:45.492Z,100955.78
2019-02-08T17:59:17.123Z,100958.61
2019-02-08T18:01:48.739Z,100949.73
2019-02-08T18:04:20.340Z,100948.48
2019-02-08T18:06:52.455Z,100944.11
2019-02-08T18:09:25.136Z,100945.59
2019-02-08T18:11:57.031Z,100949.95
2019-02-08T18:14:28.767Z,100952.77
2019-02-08T18:17:00.339Z,100956.30
2019-02-08T18:19:32.005Z,100948.14
2019-02-08T18:22:03.826Z,100947.42
2019-02-08T18:24:35.428Z,100947.20
2019-02-08T18:27:07.128Z,100940.95
2019-02-08T18:29:38.800Z,100946.58
2019-02-08T18:32:10.579Z,100939.81
2019-02-08T18:34:42.332Z,100941.75
2019-02-08T18:37:13.930Z,100940.25
2019-02-08T18:39:45.598Z,100951.99
2019-02-08T18:42:17.206Z,100944.91
2019-02-08T18:44:48.912Z,100937.84
2019-02-08T18:47:20.490Z,100942.78
2019-02-08T18:49:52.162Z,100941.72
2019-02-08T18:52:23.832Z,100933.70
2019-02-08T18:54:56.378Z,100939.81
2019-02-08T18:57:27.975Z,100936.59
2019-02-08T18:59:59.581Z,100934.83
2019-02-08T19:02:31.247Z,100934.22
2019-02-08T19:05:02.868Z,100928.36
2019-02-08T19:07:34.937Z,100927.38
2019-02-08T19:10:11.726Z,100924.71
2019-02-08T19:12:43.343Z,100924.34
2019-02-08T19:15:21.769Z,100918.95
2019-02-08T19:17:53.423Z,100915.05
2019-02-08T19:20:28.321Z,100922.09
2019-02-08T19:23:00.025Z,100924.71
2019-02-08T19:25:37.528Z,100914.02
2019-02-08T19:28:11.338Z,100918.94
2019-02-08T19:30:45.487Z,100919.00
2019-02-08T19:33:17.217Z,100923.88
2019-02-08T19:35:50.924Z,100911.41
2019-02-08T19:38:23.273Z,100914.56
2019-02-08T19:40:54.845Z,100916.77
2019-02-08T19:43:48.107Z,100914.98
2019-02-08T19:46:43.536Z,100912.83
2019-02-08T19:49:18.119Z,100901.77
2019-02-08T19:51:54.787Z,100901.70
2019-02-08T19:54:27.491Z,100896.42
2019-02-08T19:56:59.221Z,100891.58
2019-02-08T19:59:30.888Z,100884.84
2019-02-08T20:02:02.489Z,100888.90
2019-02-08T20:04:34.069Z,100881.37
2019-02-08T20:07:05.816Z,100886.17
2019-02-08T20:09:37.557Z,100876.27
2019-02-08T20:12:09.191Z,100877.23
2019-02-08T20:14:40.751Z,100874.27
2019-02-08T20:17:12.352Z,100877.64
2019-02-08T20:19:43.951Z,100873.07
2019-02-08T20:22:15.534Z,100871.49
2019-02-08T20:24:47.185Z,100864.81
2019-02-08T20:27:18.849Z,100867.80
2019-02-08T20:29:50.456Z,100862.62
2019-02-08T20:32:22.032Z,100867.98
2019-02-08T20:34:53.810Z,100868.78
2019-02-08T20:37:25.644Z,100859.96
2019-02-08T20:39:57.596Z,100865.06
2019-02-08T20:42:29.196Z,100866.82
2019-02-08T20:45:01.119Z,100868.28
2019-02-08T20:47:32.791Z,100870.39
2019-02-08T20:50:08.339Z,100866.58
2019-02-08T20:52:40.251Z,100871.92
2019-02-08T20:55:12.600Z,100873.55
2019-02-08T20:57:44.485Z,100865.05
2019-02-08T21:00:27.239Z,100857.40
2019-02-08T21:05:46.240Z,100851.98
2019-02-08T21:08:18.527Z,100860.70
2019-02-08T21:10:50.287Z,100853.36
2019-02-08T21:13:22.030Z,100844.02
2019-02-08T21:15:53.893Z,100847.34
2019-02-08T21:18:39.761Z,100840.12
2019-02-08T21:21:14.676Z,100832.34
2019-02-08T21:23:46.584Z,100829.45
2019-02-08T21:26:18.348Z,100821.92
2019-02-08T21:28:57.993Z,100826.30
2019-02-08T21:31:26.184Z,100823.92
2019-02-08T21:33:57.774Z,100819.35
2019-02-08T21:36:39.492Z,100818.88
2019-02-08T21:39:18.091Z,100815.11
2019-02-08T21:41:54.134Z,100806.57
2019-02-08T21:47:21.782Z,100801.92
2019-02-08T21:49:56.326Z,100797.31
2019-02-08T21:52:33.537Z,100794.64
2019-02-08T21:55:13.764Z,100787.03
2019-02-08T21:57:50.594Z,100784.86
2019-02-08T22:00:31.242Z,100780.41
2019-02-08T22:03:12.860Z,100780.02
2019-02-08T22:05:58.159Z,100785.49
2019-02-08T22:08:30.269Z,100779.78
2019-02-08T22:11:01.937Z,100780.69
2019-02-08T22:13:33.677Z,100774.09
2019-02-08T22:16:05.522Z,100774.95
2019-02-08T22:18:37.234Z,100771.36
2019-02-08T22:21:08.886Z,100773.59
2019-02-08T22:23:40.648Z,100775.35
2019-02-08T22:26:12.306Z,100769.95
2019-02-08T22:28:45.766Z,100768.75
2019-02-08T22:31:18.179Z,100763.00
2019-02-08T22:33:49.980Z,100758.08
2019-02-08T22:36:21.632Z,100754.92
2019-02-08T22:38:53.372Z,100749.13
2019-02-08T22:41:24.970Z,100747.83
2019-02-08T22:43:56.600Z,100742.89
2019-02-08T22:46:28.281Z,100741.56
2019-02-08T22:48:59.849Z,100738.39
2019-02-08T22:51:32.204Z,100736.69
2019-02-08T22:54:04.005Z,100729.55
2019-02-08T22:56:35.719Z,100724.13
2019-02-08T22:59:07.397Z,100724.53
2019-02-08T23:01:39.384Z,100719.27
2019-02-08T23:04:11.560Z,100716.54
2019-02-08T23:06:45.032Z,100712.53
2019-02-08T23:09:23.243Z,100708.53
2019-02-08T23:11:55.887Z,100712.52
2019-02-08T23:14:27.520Z,100710.48
2019-02-08T23:16:59.870Z,100710.08
2019-02-08T23:19:31.536Z,100698.55
2019-02-08T23:22:03.185Z,100699.39
2019-02-08T23:24:34.847Z,100697.58
2019-02-08T23:27:06.592Z,100701.63
2019-02-08T23:29:39.433Z,100698.98
2019-02-08T23:32:11.070Z,100699.53
2019-02-08T23:34:42.653Z,100694.69
2019-02-08T23:37:14.329Z,100698.70
2019-02-08T23:39:45.934Z,100690.75
2019-02-08T23:42:18.679Z,100684.52
2019-02-08T23:44:50.328Z,100680.98
2019-02-08T23:47:24.829Z,100682.89
2019-02-08T23:49:59.878Z,100677.13
2019-02-08T23:52:31.634Z,100670.61
2019-02-08T23:55:03.287Z,100668.34
2019-02-08T23:57:34.979Z,100659.64
